EAG5511 SBBR-SBSP
Flight info
| Callsign | EAG5511 |
|---|---|
| Flight time | 1h 9m |
| Altitude | 43000 |
| Route | GEBEP/N0479F410 UZ2 ENTIT |
| Aircraft | C700/M-SBDGHM1RWXY/LB2 |
Departure
| Time | 2026-05-04 21:04 |
|---|---|
| Airport | Presidente Juscelino Kubitschek International Airport (SBBR) |
Arrival
| Time | 2026-05-04 22:13 |
|---|---|
| Airport | Congonhas–Deputado Freitas Nobre Airport (SBSP) |
| Time | Latitude | Longitude | Altitude | Speed | Heading |
|---|---|---|---|---|---|
| 2026-05-04 20:51 | -15.87112 | -47.91729 | 3464 ft | 0 kts | 236° |
| 2026-05-04 20:55 | -15.87109 | -47.91723 | 3464 ft | 3 kts | 236° |
| 2026-05-04 20:55 | -15.87100 | -47.91710 | 3464 ft | 2 kts | 236° |
| 2026-05-04 20:55 | -15.87089 | -47.91700 | 3464 ft | 2 kts | 172° |
| 2026-05-04 20:55 | -15.87083 | -47.91701 | 3464 ft | 0 kts | 144° |
| 2026-05-04 20:56 | -15.87084 | -47.91701 | 3464 ft | 0 kts | 144° |
| 2026-05-04 20:57 | -15.87115 | -47.91685 | 3464 ft | 8 kts | 162° |
| 2026-05-04 20:57 | -15.87179 | -47.91678 | 3464 ft | 10 kts | 176° |
| 2026-05-04 20:57 | -15.87257 | -47.91672 | 3464 ft | 12 kts | 175° |
| 2026-05-04 20:57 | -15.87349 | -47.91665 | 3464 ft | 14 kts | 178° |
| 2026-05-04 20:58 | -15.87452 | -47.91659 | 3464 ft | 16 kts | 176° |
| 2026-05-04 20:58 | -15.87566 | -47.91652 | 3464 ft | 17 kts | 178° |
| 2026-05-04 20:58 | -15.87650 | -47.91712 | 3464 ft | 18 kts | 266° |
| 2026-05-04 20:58 | -15.87658 | -47.91846 | 3465 ft | 20 kts | 266° |
| 2026-05-04 20:59 | -15.87682 | -47.91978 | 3464 ft | 15 kts | 212° |
| 2026-05-04 20:59 | -15.87760 | -47.92025 | 3465 ft | 15 kts | 260° |
| 2026-05-04 20:59 | -15.87768 | -47.92137 | 3465 ft | 17 kts | 265° |
| 2026-05-04 20:59 | -15.87777 | -47.92274 | 3464 ft | 21 kts | 266° |
| 2026-05-04 21:00 | -15.87787 | -47.92438 | 3466 ft | 24 kts | 266° |
| 2026-05-04 21:00 | -15.87799 | -47.92614 | 3466 ft | 25 kts | 265° |
| 2026-05-04 21:00 | -15.87810 | -47.92801 | 3466 ft | 27 kts | 266° |
| 2026-05-04 21:00 | -15.87823 | -47.92996 | 3466 ft | 28 kts | 266° |
| 2026-05-04 21:01 | -15.87836 | -47.93200 | 3466 ft | 29 kts | 266° |
| 2026-05-04 21:01 | -15.87850 | -47.93408 | 3466 ft | 30 kts | 267° |
| 2026-05-04 21:01 | -15.87863 | -47.93626 | 3465 ft | 31 kts | 266° |
| 2026-05-04 21:01 | -15.87878 | -47.93845 | 3467 ft | 28 kts | 265° |
| 2026-05-04 21:02 | -15.87903 | -47.93983 | 3468 ft | 19 kts | 225° |
| 2026-05-04 21:02 | -15.87972 | -47.93996 | 3473 ft | 0 kts | 176° |
| 2026-05-04 21:02 | -15.87973 | -47.93996 | 3473 ft | 1 kts | 176° |
| 2026-05-04 21:03 | -15.88009 | -47.93993 | 3476 ft | 9 kts | 175° |
| 2026-05-04 21:03 | -15.88061 | -47.93913 | 3479 ft | 23 kts | 85° |
| 2026-05-04 21:03 | -15.88036 | -47.93510 | 3474 ft | 100 kts | 86° |
| 2026-05-04 21:03 | -15.87961 | -47.92489 | 3601 ft | 177 kts | 86° |
| 2026-05-04 21:04 | -15.87913 | -47.91086 | 4675 ft | 206 kts | 96° |
| 2026-05-04 21:04 | -15.88704 | -47.89781 | 6046 ft | 232 kts | 139° |
| 2026-05-04 21:04 | -15.90286 | -47.89146 | 7333 ft | 259 kts | 161° |
| 2026-05-04 21:04 | -15.92136 | -47.88709 | 8371 ft | 286 kts | 164° |
| 2026-05-04 21:05 | -15.94079 | -47.88213 | 9865 ft | 289 kts | 163° |
| 2026-05-04 21:05 | -15.96031 | -47.87627 | 11045 ft | 307 kts | 162° |
| 2026-05-04 21:05 | -15.98163 | -47.86982 | 12061 ft | 327 kts | 163° |
| 2026-05-04 21:05 | -16.00390 | -47.86342 | 13364 ft | 336 kts | 163° |
| 2026-05-04 21:06 | -16.02655 | -47.85681 | 14702 ft | 340 kts | 163° |
| 2026-05-04 21:06 | -16.04947 | -47.85011 | 15947 ft | 344 kts | 164° |
| 2026-05-04 21:06 | -16.07262 | -47.84335 | 17183 ft | 347 kts | 165° |
| 2026-05-04 21:06 | -16.09593 | -47.83641 | 18447 ft | 350 kts | 165° |
| 2026-05-04 21:07 | -16.11947 | -47.82920 | 19463 ft | 356 kts | 165° |
| 2026-05-04 21:07 | -16.14342 | -47.82192 | 20434 ft | 362 kts | 166° |
| 2026-05-04 21:07 | -16.16779 | -47.81460 | 21414 ft | 367 kts | 166° |
| 2026-05-04 21:07 | -16.19220 | -47.80725 | 22338 ft | 374 kts | 166° |
| 2026-05-04 21:08 | -16.21740 | -47.79964 | 23271 ft | 381 kts | 166° |
| 2026-05-04 21:08 | -16.24302 | -47.79186 | 24134 ft | 386 kts | 166° |
| 2026-05-04 21:08 | -16.26901 | -47.78401 | 24939 ft | 391 kts | 166° |
| 2026-05-04 21:08 | -16.29532 | -47.77608 | 25730 ft | 396 kts | 166° |
| 2026-05-04 21:09 | -16.32196 | -47.76802 | 26526 ft | 401 kts | 166° |
| 2026-05-04 21:09 | -16.34894 | -47.75985 | 27313 ft | 406 kts | 167° |
| 2026-05-04 21:09 | -16.37627 | -47.75157 | 28080 ft | 411 kts | 167° |
| 2026-05-04 21:09 | -16.40390 | -47.74322 | 28826 ft | 417 kts | 167° |
| 2026-05-04 21:10 | -16.43154 | -47.73484 | 29549 ft | 422 kts | 167° |
| 2026-05-04 21:10 | -16.45988 | -47.72626 | 30280 ft | 427 kts | 167° |
| 2026-05-04 21:10 | -16.48849 | -47.71759 | 30948 ft | 430 kts | 168° |
| 2026-05-04 21:10 | -16.51731 | -47.70885 | 31648 ft | 433 kts | 168° |
| 2026-05-04 21:11 | -16.54636 | -47.70005 | 32255 ft | 437 kts | 168° |
| 2026-05-04 21:11 | -16.57567 | -47.69116 | 32841 ft | 441 kts | 169° |
| 2026-05-04 21:11 | -16.60522 | -47.68219 | 33430 ft | 443 kts | 169° |
| 2026-05-04 21:11 | -16.63475 | -47.67321 | 34228 ft | 441 kts | 169° |
| 2026-05-04 21:12 | -16.66372 | -47.66441 | 34907 ft | 439 kts | 169° |
| 2026-05-04 21:12 | -16.69296 | -47.65554 | 35598 ft | 437 kts | 170° |
| 2026-05-04 21:12 | -16.72203 | -47.64671 | 36301 ft | 435 kts | 170° |
| 2026-05-04 21:12 | -16.75102 | -47.63789 | 36960 ft | 433 kts | 171° |
| 2026-05-04 21:13 | -16.77992 | -47.62911 | 37595 ft | 432 kts | 171° |
| 2026-05-04 21:13 | -16.80871 | -47.62036 | 38163 ft | 430 kts | 171° |
| 2026-05-04 21:13 | -16.83743 | -47.61163 | 38710 ft | 429 kts | 171° |
| 2026-05-04 21:13 | -16.86609 | -47.60290 | 39138 ft | 429 kts | 171° |
| 2026-05-04 21:14 | -16.89432 | -47.59432 | 39486 ft | 429 kts | 171° |
| 2026-05-04 21:14 | -16.92298 | -47.58559 | 39818 ft | 429 kts | 171° |
| 2026-05-04 21:14 | -16.95164 | -47.57686 | 40136 ft | 429 kts | 171° |
| 2026-05-04 21:14 | -16.98030 | -47.56812 | 40461 ft | 429 kts | 171° |
| 2026-05-04 21:15 | -17.00896 | -47.55940 | 40764 ft | 429 kts | 171° |
| 2026-05-04 21:15 | -17.03762 | -47.55067 | 41034 ft | 429 kts | 171° |
| 2026-05-04 21:15 | -17.06627 | -47.54192 | 41289 ft | 429 kts | 171° |
| 2026-05-04 21:15 | -17.09496 | -47.53317 | 41535 ft | 429 kts | 171° |
| 2026-05-04 21:16 | -17.12366 | -47.52441 | 41771 ft | 430 kts | 171° |
| 2026-05-04 21:16 | -17.15200 | -47.51577 | 41995 ft | 430 kts | 171° |
| 2026-05-04 21:16 | -17.18071 | -47.50701 | 42221 ft | 430 kts | 171° |
| 2026-05-04 21:16 | -17.20942 | -47.49822 | 42446 ft | 430 kts | 171° |
| 2026-05-04 21:17 | -17.23815 | -47.48945 | 42631 ft | 430 kts | 171° |
| 2026-05-04 21:17 | -17.26687 | -47.48068 | 42839 ft | 430 kts | 171° |
| 2026-05-04 21:17 | -17.29560 | -47.47190 | 43040 ft | 430 kts | 171° |
| 2026-05-04 21:17 | -17.32432 | -47.46312 | 43159 ft | 432 kts | 171° |
| 2026-05-04 21:18 | -17.38221 | -47.44543 | 43160 ft | 440 kts | 170° |
| 2026-05-04 21:18 | -17.44150 | -47.42725 | 43170 ft | 448 kts | 170° |
| 2026-05-04 21:19 | -17.50193 | -47.41053 | 43180 ft | 448 kts | 178° |
| 2026-05-04 21:19 | -17.56396 | -47.40097 | 43183 ft | 454 kts | 178° |
| 2026-05-04 21:20 | -17.62680 | -47.39096 | 43180 ft | 459 kts | 178° |
| 2026-05-04 21:20 | -17.68987 | -47.38112 | 43202 ft | 463 kts | 178° |
| 2026-05-04 21:21 | -17.75363 | -47.37104 | 43183 ft | 463 kts | 178° |
| 2026-05-04 21:21 | -17.81731 | -47.36105 | 43184 ft | 462 kts | 178° |
| 2026-05-04 21:22 | -17.88053 | -47.35108 | 43185 ft | 463 kts | 178° |
| 2026-05-04 21:22 | -17.94423 | -47.34104 | 43183 ft | 463 kts | 179° |
| 2026-05-04 21:23 | -18.00771 | -47.33102 | 43179 ft | 461 kts | 179° |
| 2026-05-04 21:23 | -18.07111 | -47.32102 | 43181 ft | 460 kts | 179° |
| 2026-05-04 21:24 | -18.13404 | -47.31107 | 43178 ft | 460 kts | 179° |
| 2026-05-04 21:24 | -18.19737 | -47.30107 | 43182 ft | 460 kts | 179° |
| 2026-05-04 21:25 | -18.26068 | -47.29106 | 43179 ft | 460 kts | 179° |
| 2026-05-04 21:25 | -18.32393 | -47.28104 | 43184 ft | 459 kts | 179° |
| 2026-05-04 21:26 | -18.38668 | -47.27110 | 43182 ft | 459 kts | 179° |
| 2026-05-04 21:26 | -18.44994 | -47.26107 | 43194 ft | 460 kts | 179° |
| 2026-05-04 21:27 | -18.51331 | -47.25102 | 43196 ft | 461 kts | 179° |
| 2026-05-04 21:27 | -18.57667 | -47.24096 | 43197 ft | 460 kts | 179° |
| 2026-05-04 21:28 | -18.63996 | -47.23090 | 43197 ft | 460 kts | 179° |
| 2026-05-04 21:28 | -18.70282 | -47.22090 | 43199 ft | 460 kts | 179° |
| 2026-05-04 21:29 | -18.76605 | -47.21084 | 43201 ft | 459 kts | 179° |
| 2026-05-04 21:29 | -18.82929 | -47.20077 | 43203 ft | 460 kts | 179° |
| 2026-05-04 21:30 | -18.89254 | -47.19067 | 43204 ft | 460 kts | 179° |
| 2026-05-04 21:30 | -18.95528 | -47.18066 | 43202 ft | 457 kts | 179° |
| 2026-05-04 21:31 | -19.04992 | -47.16556 | 43195 ft | 459 kts | 179° |
| 2026-05-04 21:32 | -19.11316 | -47.15544 | 43198 ft | 460 kts | 179° |
| 2026-05-04 21:32 | -19.17645 | -47.14539 | 43200 ft | 459 kts | 180° |
| 2026-05-04 21:33 | -19.23932 | -47.13692 | 43204 ft | 459 kts | 180° |
| 2026-05-04 21:33 | -19.30270 | -47.12773 | 43221 ft | 460 kts | 180° |
| 2026-05-04 21:34 | -19.36617 | -47.11880 | 43234 ft | 460 kts | 180° |
| 2026-05-04 21:34 | -19.42900 | -47.10982 | 43250 ft | 457 kts | 180° |
| 2026-05-04 21:35 | -19.49189 | -47.10090 | 43256 ft | 456 kts | 180° |
| 2026-05-04 21:35 | -19.55480 | -47.09194 | 43261 ft | 456 kts | 180° |
| 2026-05-04 21:36 | -19.61768 | -47.08297 | 43283 ft | 456 kts | 180° |
| 2026-05-04 21:36 | -19.68039 | -47.07404 | 43260 ft | 454 kts | 180° |
| 2026-05-04 21:37 | -19.74270 | -47.06516 | 43220 ft | 455 kts | 180° |
| 2026-05-04 21:37 | -19.80553 | -47.05617 | 43226 ft | 456 kts | 180° |
| 2026-05-04 21:38 | -19.86844 | -47.04719 | 43219 ft | 456 kts | 180° |
| 2026-05-04 21:38 | -19.93132 | -47.03820 | 43218 ft | 456 kts | 180° |
| 2026-05-04 21:39 | -19.99424 | -47.02918 | 43209 ft | 456 kts | 180° |
| 2026-05-04 21:39 | -20.05670 | -47.02024 | 43224 ft | 456 kts | 181° |
| 2026-05-04 21:40 | -20.11968 | -47.01122 | 43218 ft | 457 kts | 181° |
| 2026-05-04 21:40 | -20.18261 | -47.00217 | 43216 ft | 456 kts | 181° |
| 2026-05-04 21:41 | -20.24547 | -46.99315 | 43214 ft | 456 kts | 181° |
| 2026-05-04 21:41 | -20.30788 | -46.98418 | 43219 ft | 455 kts | 181° |
| 2026-05-04 21:42 | -20.37057 | -46.97515 | 43213 ft | 454 kts | 181° |
| 2026-05-04 21:42 | -20.43314 | -46.96616 | 43215 ft | 455 kts | 181° |
| 2026-05-04 21:43 | -20.49587 | -46.95711 | 43222 ft | 455 kts | 181° |
| 2026-05-04 21:43 | -20.55813 | -46.94814 | 43224 ft | 454 kts | 181° |
| 2026-05-04 21:44 | -20.62071 | -46.93910 | 43227 ft | 453 kts | 181° |
| 2026-05-04 21:44 | -20.68322 | -46.93008 | 43227 ft | 454 kts | 181° |
| 2026-05-04 21:45 | -20.74583 | -46.92102 | 43230 ft | 454 kts | 181° |
| 2026-05-04 21:45 | -20.80809 | -46.91195 | 43230 ft | 456 kts | 180° |
| 2026-05-04 21:46 | -20.87082 | -46.90184 | 43231 ft | 455 kts | 180° |
| 2026-05-04 21:46 | -20.93350 | -46.89223 | 43230 ft | 455 kts | 180° |
| 2026-05-04 21:47 | -20.99620 | -46.88233 | 43231 ft | 455 kts | 180° |
| 2026-05-04 21:47 | -21.05887 | -46.87258 | 43232 ft | 454 kts | 181° |
| 2026-05-04 21:48 | -21.12094 | -46.86284 | 43229 ft | 454 kts | 180° |
| 2026-05-04 21:48 | -21.18339 | -46.85309 | 43230 ft | 454 kts | 180° |
| 2026-05-04 21:49 | -21.24590 | -46.84326 | 43232 ft | 454 kts | 180° |
| 2026-05-04 21:49 | -21.30839 | -46.83347 | 43222 ft | 453 kts | 180° |
| 2026-05-04 21:50 | -21.37039 | -46.82373 | 43226 ft | 453 kts | 181° |
| 2026-05-04 21:50 | -21.43280 | -46.81391 | 43226 ft | 453 kts | 181° |
| 2026-05-04 21:51 | -21.49525 | -46.80416 | 43232 ft | 453 kts | 181° |
| 2026-05-04 21:51 | -21.55770 | -46.79417 | 43069 ft | 456 kts | 181° |
| 2026-05-04 21:51 | -21.58925 | -46.78930 | 42469 ft | 459 kts | 181° |
| 2026-05-04 21:52 | -21.62034 | -46.78446 | 41877 ft | 456 kts | 181° |
| 2026-05-04 21:52 | -21.65161 | -46.77939 | 41276 ft | 452 kts | 181° |
| 2026-05-04 21:52 | -21.68262 | -46.77447 | 40688 ft | 449 kts | 181° |
| 2026-05-04 21:52 | -21.71353 | -46.76970 | 40090 ft | 449 kts | 181° |
| 2026-05-04 21:53 | -21.74461 | -46.76485 | 39506 ft | 453 kts | 181° |
| 2026-05-04 21:53 | -21.77593 | -46.75986 | 38901 ft | 457 kts | 181° |
| 2026-05-04 21:53 | -21.80739 | -46.75484 | 38261 ft | 457 kts | 181° |
| 2026-05-04 21:53 | -21.83889 | -46.74986 | 37641 ft | 459 kts | 181° |
| 2026-05-04 21:54 | -21.87054 | -46.74489 | 37040 ft | 462 kts | 180° |
| 2026-05-04 21:54 | -21.90210 | -46.73993 | 36435 ft | 465 kts | 180° |
| 2026-05-04 21:54 | -21.93405 | -46.73714 | 35830 ft | 458 kts | 187° |
| 2026-05-04 21:54 | -21.96574 | -46.73813 | 35266 ft | 455 kts | 191° |
| 2026-05-04 21:55 | -21.99735 | -46.74040 | 34707 ft | 456 kts | 192° |
| 2026-05-04 21:55 | -22.02931 | -46.74178 | 34156 ft | 463 kts | 188° |
| 2026-05-04 21:55 | -22.06168 | -46.74077 | 33550 ft | 467 kts | 185° |
| 2026-05-04 21:55 | -22.09418 | -46.73956 | 32962 ft | 466 kts | 187° |
| 2026-05-04 21:56 | -22.12658 | -46.73985 | 32394 ft | 466 kts | 188° |
| 2026-05-04 21:56 | -22.15860 | -46.74049 | 31843 ft | 468 kts | 188° |
| 2026-05-04 21:56 | -22.19127 | -46.74028 | 31352 ft | 471 kts | 186° |
| 2026-05-04 21:56 | -22.22404 | -46.73970 | 30844 ft | 470 kts | 186° |
| 2026-05-04 21:57 | -22.25675 | -46.73962 | 30360 ft | 471 kts | 187° |
| 2026-05-04 21:57 | -22.28956 | -46.73983 | 29809 ft | 472 kts | 187° |
| 2026-05-04 21:57 | -22.32246 | -46.73975 | 29251 ft | 474 kts | 186° |
| 2026-05-04 21:57 | -22.35545 | -46.73948 | 28705 ft | 475 kts | 186° |
| 2026-05-04 21:58 | -22.38857 | -46.73934 | 28183 ft | 477 kts | 186° |
| 2026-05-04 21:58 | -22.42133 | -46.73934 | 27677 ft | 477 kts | 186° |
| 2026-05-04 21:58 | -22.45426 | -46.73925 | 27208 ft | 467 kts | 185° |
| 2026-05-04 21:58 | -22.48654 | -46.73909 | 26728 ft | 461 kts | 185° |
| 2026-05-04 21:59 | -22.51847 | -46.73902 | 26266 ft | 458 kts | 185° |
| 2026-05-04 21:59 | -22.55020 | -46.73899 | 25818 ft | 455 kts | 185° |
| 2026-05-04 21:59 | -22.58180 | -46.73887 | 25379 ft | 452 kts | 185° |
| 2026-05-04 21:59 | -22.61315 | -46.73876 | 24927 ft | 449 kts | 185° |
| 2026-05-04 22:00 | -22.64434 | -46.73866 | 24500 ft | 447 kts | 185° |
| 2026-05-04 22:00 | -22.67533 | -46.73859 | 24101 ft | 443 kts | 185° |
| 2026-05-04 22:00 | -22.70564 | -46.73849 | 23670 ft | 439 kts | 185° |
| 2026-05-04 22:00 | -22.73610 | -46.73840 | 23174 ft | 437 kts | 185° |
| 2026-05-04 22:01 | -22.76646 | -46.73832 | 22688 ft | 435 kts | 185° |
| 2026-05-04 22:01 | -22.79663 | -46.73824 | 22224 ft | 433 kts | 185° |
| 2026-05-04 22:01 | -22.82669 | -46.73815 | 21777 ft | 431 kts | 185° |
| 2026-05-04 22:01 | -22.85660 | -46.73806 | 21339 ft | 429 kts | 185° |
| 2026-05-04 22:02 | -22.88640 | -46.73798 | 20897 ft | 427 kts | 184° |
| 2026-05-04 22:02 | -22.91605 | -46.73786 | 20481 ft | 425 kts | 184° |
| 2026-05-04 22:02 | -22.94506 | -46.73779 | 20073 ft | 422 kts | 184° |
| 2026-05-04 22:02 | -22.97445 | -46.73772 | 19660 ft | 421 kts | 184° |
| 2026-05-04 22:03 | -23.00371 | -46.73763 | 19257 ft | 420 kts | 184° |
| 2026-05-04 22:03 | -23.03286 | -46.73755 | 18875 ft | 419 kts | 184° |
| 2026-05-04 22:03 | -23.06202 | -46.73744 | 18492 ft | 417 kts | 184° |
| 2026-05-04 22:03 | -23.09093 | -46.73737 | 18047 ft | 414 kts | 184° |
| 2026-05-04 22:04 | -23.11958 | -46.73730 | 17615 ft | 409 kts | 184° |
| 2026-05-04 22:04 | -23.14798 | -46.73721 | 17199 ft | 407 kts | 184° |
| 2026-05-04 22:04 | -23.17617 | -46.73711 | 16765 ft | 403 kts | 183° |
| 2026-05-04 22:04 | -23.20390 | -46.73705 | 15877 ft | 400 kts | 183° |
| 2026-05-04 22:05 | -23.23109 | -46.73693 | 15012 ft | 383 kts | 182° |
| 2026-05-04 22:05 | -23.25722 | -46.73682 | 14206 ft | 368 kts | 182° |
| 2026-05-04 22:05 | -23.28176 | -46.73680 | 13383 ft | 323 kts | 182° |
| 2026-05-04 22:05 | -23.30370 | -46.73673 | 12541 ft | 316 kts | 182° |
| 2026-05-04 22:06 | -23.32547 | -46.73668 | 11731 ft | 302 kts | 182° |
| 2026-05-04 22:06 | -23.34485 | -46.73658 | 11088 ft | 257 kts | 182° |
| 2026-05-04 22:06 | -23.36169 | -46.73649 | 10570 ft | 229 kts | 182° |
| 2026-05-04 22:06 | -23.37664 | -46.73650 | 10041 ft | 209 kts | 183° |
| 2026-05-04 22:07 | -23.39071 | -46.73646 | 9458 ft | 197 kts | 183° |
| 2026-05-04 22:07 | -23.40421 | -46.73643 | 8848 ft | 193 kts | 183° |
| 2026-05-04 22:07 | -23.41728 | -46.73637 | 8465 ft | 183 kts | 183° |
| 2026-05-04 22:07 | -23.43001 | -46.73639 | 8116 ft | 183 kts | 183° |
| 2026-05-04 22:08 | -23.44272 | -46.73635 | 7769 ft | 182 kts | 182° |
| 2026-05-04 22:08 | -23.45538 | -46.73628 | 7427 ft | 182 kts | 183° |
| 2026-05-04 22:08 | -23.46806 | -46.73627 | 7055 ft | 184 kts | 183° |
| 2026-05-04 22:08 | -23.48100 | -46.73624 | 6638 ft | 188 kts | 182° |
| 2026-05-04 22:09 | -23.49395 | -46.73620 | 6234 ft | 188 kts | 182° |
| 2026-05-04 22:09 | -23.50698 | -46.73591 | 5866 ft | 187 kts | 176° |
| 2026-05-04 22:09 | -23.51912 | -46.73095 | 5425 ft | 191 kts | 148° |
| 2026-05-04 22:09 | -23.53041 | -46.72316 | 4854 ft | 189 kts | 148° |
| 2026-05-04 22:10 | -23.54074 | -46.71622 | 4454 ft | 157 kts | 146° |
| 2026-05-04 22:10 | -23.54962 | -46.70981 | 4247 ft | 151 kts | 146° |
| 2026-05-04 22:10 | -23.55839 | -46.70387 | 4087 ft | 146 kts | 148° |
| 2026-05-04 22:10 | -23.56672 | -46.69808 | 3907 ft | 139 kts | 146° |
| 2026-05-04 22:11 | -23.57468 | -46.69246 | 3736 ft | 134 kts | 146° |
| 2026-05-04 22:11 | -23.58243 | -46.68721 | 3571 ft | 132 kts | 144° |
| 2026-05-04 22:11 | -23.59013 | -46.68170 | 3394 ft | 134 kts | 143° |
| 2026-05-04 22:11 | -23.59803 | -46.67631 | 3209 ft | 133 kts | 145° |
| 2026-05-04 22:12 | -23.60585 | -46.67091 | 3011 ft | 134 kts | 142° |
| 2026-05-04 22:12 | -23.61362 | -46.66541 | 2822 ft | 132 kts | 145° |
| 2026-05-04 22:12 | -23.62103 | -46.66032 | 2623 ft | 118 kts | 143° |
| 2026-05-04 22:12 | -23.62683 | -46.65632 | 2618 ft | 58 kts | 148° |
| 2026-05-04 22:13 | -23.62873 | -46.65504 | 2623 ft | 22 kts | 159° |
| 2026-05-04 22:13 | -23.62919 | -46.65578 | 2624 ft | 15 kts | 313° |
| 2026-05-04 22:13 | -23.62900 | -46.65646 | 2623 ft | 11 kts | 237° |
| 2026-05-04 22:13 | -23.62878 | -46.65711 | 2622 ft | 0 kts | 326° |